Hendersonville, NC (28739)

9:22 PM EDT on March 27, 2015 (GMT -0400)
TempleCastle - Highway 191 | | Change Station
CLOSE
Current Station
Personal Weather Station
Location: HENDERSONVILLE, NC
Elevation: 2306 ft
Nearby Weather Stations

Elev 2306 ft 35.34 °N, 82.50 °W | Updated 8 minutes ago

Overcast
Overcast
38.5 °F
Feels Like 36 °F
N
3.2
Wind Variable Wind from West

Today
High -- | Low -- °F
--% Chance of Precip.
Yesterday
High -- | Low -- °F
Precip. -- in
7:24 AM 7:47 PM
First Quarter, 57% visible
Pressure 29.85 in
Visibility 10.0 miles
Clouds Few 3700 ft
Overcast 11000 ft
Windchill 36 °F
Dew Point 31 °F
Humidity 73%
Rainfall 0.18 in
Snow Depth Not available.
UV 0 out of 12
Pollen 8.30 out of 12
Air Quality Not available.
Flu Activity Not available.
METAR KAVL 280054Z 32012G18KT 10SM FEW037 OVC110 04/M03 A2984 RMK AO2 SLP106 T00441033

More Conditions Fewer Conditions

Pressure 29.85 in
Visibility 10.0 miles
Clouds Few 3700 ft
Overcast 11000 ft
Windchill 36 °F
Dew Point 31 °F
Humidity 73%
Rainfall 0.18 in
Snow Depth Not available.
UV 0 out of 12
Pollen 8.30 out of 12
Air Quality Not available.
Flu Activity Not available.
METAR KAVL 280054Z 32012G18KT 10SM FEW037 OVC110 04/M03 A2984 RMK AO2 SLP106 T00441033

More Conditions Fewer Conditions

10-Day Weather Forecast

Almanac

Astronomy

Mar. 27, 2015 Rise Set
Actual Time
Civil Twilight
Nautical Twilight
Astronomical Twilight
Moon
Length of Visible Light
Length of Day
Tomorrow will be .
, % of the Moon is Illuminated

Today's Extremes

State Highs State Lows

Community

WunderPhotos

Upload Photos

1,808,906 photos uploaded!

WunderBlogs® & News

Nearby

Air Quality

  Air Quality AQ Index Pollutant
Not available.

Snow Depth

Station Depth Elevation

Earthquake Activity

City Distance Mag. Time & Date
Minimum magnitude displayed is 2.5.

Coastal Water Temperatures

Place Temperature

Stations

Nearby Weather Stations

Station Location Temp. Windchill Dew Point Humidity Wind Precip. Elev Updated Type
                   
Freeze Warning, Freeze Watch
Statement as of 6:54 PM EDT on March 27, 2015

... Freeze warning remains in effect from midnight tonight to noon
EDT Saturday...
... Freeze watch remains in effect from late Saturday night
through Sunday morning...

* locations... the central and southern mountains of North
Carolina and Rabun County Georgia.

* Temperatures... lows tonight and Saturday night from the upper
teens to middle 20s.

* Impacts... very cold temperatures will kill sensitive
vegetation that has already started to grow this season.

Precautionary/preparedness actions...

A freeze warning means sub-freezing temperatures are imminent or
highly likely. These conditions will kill crops and other
sensitive vegetation.

A freeze watch means sub-freezing temperatures are possible.
These conditions could kill crops and other sensitive vegetation.